sensor_id;sensor_type;location;lat;lon;timestamp;temperature;humidity
22966;DHT22;11649;48.090;9.754;2023-05-02T00:01:15;9.90;99.90
22966;DHT22;11649;48.090;9.754;2023-05-02T00:03:42;9.90;99.90
22966;DHT22;11649;48.090;9.754;2023-05-02T00:06:09;9.90;99.90
22966;DHT22;11649;48.090;9.754;2023-05-02T00:08:37;9.80;99.90
22966;DHT22;11649;48.090;9.754;2023-05-02T00:11:04;9.80;99.90
22966;DHT22;11649;48.090;9.754;2023-05-02T00:13:31;9.80;99.90
22966;DHT22;11649;48.090;9.754;2023-05-02T00:15:58;9.80;99.90
22966;DHT22;11649;48.090;9.754;2023-05-02T00:18:25;9.70;99.90
22966;DHT22;11649;48.090;9.754;2023-05-02T00:20:52;9.70;99.90
22966;DHT22;11649;48.090;9.754;2023-05-02T00:23:18;9.80;99.90
22966;DHT22;11649;48.090;9.754;2023-05-02T00:25:45;9.70;99.90
22966;DHT22;11649;48.090;9.754;2023-05-02T00:28:12;9.80;99.90
22966;DHT22;11649;48.090;9.754;2023-05-02T00:30:46;9.70;99.90
22966;DHT22;11649;48.090;9.754;2023-05-02T00:33:13;9.70;99.90
22966;DHT22;11649;48.090;9.754;2023-05-02T00:35:40;9.70;99.90
22966;DHT22;11649;48.090;9.754;2023-05-02T00:38:07;9.60;99.90
22966;DHT22;11649;48.090;9.754;2023-05-02T00:40:48;9.60;99.90
22966;DHT22;11649;48.090;9.754;2023-05-02T00:43:15;9.50;99.90
22966;DHT22;11649;48.090;9.754;2023-05-02T00:45:43;9.50;99.90
22966;DHT22;11649;48.090;9.754;2023-05-02T00:48:10;9.50;99.90
22966;DHT22;11649;48.090;9.754;2023-05-02T00:50:39;9.50;99.90
22966;DHT22;11649;48.090;9.754;2023-05-02T00:53:06;9.50;99.90
22966;DHT22;11649;48.090;9.754;2023-05-02T00:55:34;9.40;99.90
22966;DHT22;11649;48.090;9.754;2023-05-02T00:58:13;9.50;99.90
22966;DHT22;11649;48.090;9.754;2023-05-02T01:14:30;9.50;99.90
22966;DHT22;11649;48.090;9.754;2023-05-02T01:17:03;9.50;99.90
22966;DHT22;11649;48.090;9.754;2023-05-02T01:19:34;9.50;99.90
22966;DHT22;11649;48.090;9.754;2023-05-02T01:22:05;9.50;99.90
22966;DHT22;11649;48.090;9.754;2023-05-02T01:27:36;9.50;99.90
22966;DHT22;11649;48.090;9.754;2023-05-02T01:30:06;9.50;99.90
22966;DHT22;11649;48.090;9.754;2023-05-02T01:32:36;9.50;99.90
22966;DHT22;11649;48.090;9.754;2023-05-02T01:35:05;9.50;99.90
22966;DHT22;11649;48.090;9.754;2023-05-02T01:37:33;9.50;99.90
22966;DHT22;11649;48.090;9.754;2023-05-02T01:40:03;9.50;99.90
22966;DHT22;11649;48.090;9.754;2023-05-02T01:42:32;9.50;99.90
22966;DHT22;11649;48.090;9.754;2023-05-02T01:45:05;9.50;99.90
22966;DHT22;11649;48.090;9.754;2023-05-02T01:47:35;9.50;99.90
22966;DHT22;11649;48.090;9.754;2023-05-02T01:50:05;9.50;99.90
22966;DHT22;11649;48.090;9.754;2023-05-02T01:52:33;9.50;99.90
22966;DHT22;11649;48.090;9.754;2023-05-02T01:55:01;9.50;99.90
22966;DHT22;11649;48.090;9.754;2023-05-02T01:57:30;9.60;99.90
22966;DHT22;11649;48.090;9.754;2023-05-02T01:59:58;9.60;99.90
22966;DHT22;11649;48.090;9.754;2023-05-02T02:02:27;9.60;99.90
22966;DHT22;11649;48.090;9.754;2023-05-02T02:04:56;9.60;99.90
22966;DHT22;11649;48.090;9.754;2023-05-02T02:07:24;9.50;99.90
22966;DHT22;11649;48.090;9.754;2023-05-02T02:09:51;9.50;99.90
22966;DHT22;11649;48.090;9.754;2023-05-02T02:12:27;9.50;99.90
22966;DHT22;11649;48.090;9.754;2023-05-02T02:15:02;9.40;99.90
22966;DHT22;11649;48.090;9.754;2023-05-02T02:18:04;9.40;99.90
22966;DHT22;11649;48.090;9.754;2023-05-02T02:20:34;9.40;99.90
22966;DHT22;11649;48.090;9.754;2023-05-02T02:23:05;9.40;99.90
22966;DHT22;11649;48.090;9.754;2023-05-02T02:25:33;9.40;99.90
22966;DHT22;11649;48.090;9.754;2023-05-02T02:28:00;9.40;99.90
22966;DHT22;11649;48.090;9.754;2023-05-02T02:30:27;9.50;99.90
22966;DHT22;11649;48.090;9.754;2023-05-02T02:32:54;9.50;99.90
22966;DHT22;11649;48.090;9.754;2023-05-02T02:35:21;9.50;99.90
22966;DHT22;11649;48.090;9.754;2023-05-02T02:38:00;9.50;99.90
22966;DHT22;11649;48.090;9.754;2023-05-02T02:40:40;9.50;99.90
22966;DHT22;11649;48.090;9.754;2023-05-02T02:43:27;9.50;99.90
22966;DHT22;11649;48.090;9.754;2023-05-02T02:54:32;9.60;99.90
22966;DHT22;11649;48.090;9.754;2023-05-02T02:59:50;9.50;99.90
22966;DHT22;11649;48.090;9.754;2023-05-02T03:02:18;9.50;99.90
22966;DHT22;11649;48.090;9.754;2023-05-02T03:04:50;9.50;99.90
22966;DHT22;11649;48.090;9.754;2023-05-02T03:07:19;9.50;99.90
22966;DHT22;11649;48.090;9.754;2023-05-02T03:09:47;9.50;99.90
22966;DHT22;11649;48.090;9.754;2023-05-02T03:12:14;9.50;99.90
22966;DHT22;11649;48.090;9.754;2023-05-02T03:14:41;9.60;99.90
22966;DHT22;11649;48.090;9.754;2023-05-02T03:17:08;9.60;99.90
22966;DHT22;11649;48.090;9.754;2023-05-02T03:19:35;9.80;99.90
22966;DHT22;11649;48.090;9.754;2023-05-02T03:22:02;9.60;99.90
22966;DHT22;11649;48.090;9.754;2023-05-02T03:24:29;9.60;99.90
22966;DHT22;11649;48.090;9.754;2023-05-02T03:26:56;9.50;99.90
22966;DHT22;11649;48.090;9.754;2023-05-02T03:29:25;9.60;99.90
22966;DHT22;11649;48.090;9.754;2023-05-02T03:31:51;9.50;99.90
22966;DHT22;11649;48.090;9.754;2023-05-02T03:34:18;9.50;99.90
22966;DHT22;11649;48.090;9.754;2023-05-02T03:36:47;9.50;99.90
22966;DHT22;11649;48.090;9.754;2023-05-02T03:39:14;9.50;99.90
22966;DHT22;11649;48.090;9.754;2023-05-02T03:41:41;9.50;99.90
22966;DHT22;11649;48.090;9.754;2023-05-02T03:44:09;9.50;99.90
22966;DHT22;11649;48.090;9.754;2023-05-02T03:46:36;9.50;99.90
22966;DHT22;11649;48.090;9.754;2023-05-02T03:49:02;9.70;99.90
22966;DHT22;11649;48.090;9.754;2023-05-02T03:51:29;9.50;99.90
22966;DHT22;11649;48.090;9.754;2023-05-02T03:53:56;9.40;99.90
22966;DHT22;11649;48.090;9.754;2023-05-02T03:56:23;9.40;99.90
22966;DHT22;11649;48.090;9.754;2023-05-02T03:58:50;9.40;99.90
22966;DHT22;11649;48.090;9.754;2023-05-02T04:01:17;9.40;99.90
22966;DHT22;11649;48.090;9.754;2023-05-02T04:03:44;9.40;99.90
22966;DHT22;11649;48.090;9.754;2023-05-02T04:06:11;9.50;99.90
22966;DHT22;11649;48.090;9.754;2023-05-02T04:08:38;9.50;99.90
22966;DHT22;11649;48.090;9.754;2023-05-02T04:11:05;9.50;99.90
22966;DHT22;11649;48.090;9.754;2023-05-02T04:13:32;9.50;99.90
22966;DHT22;11649;48.090;9.754;2023-05-02T04:15:59;9.50;99.90
22966;DHT22;11649;48.090;9.754;2023-05-02T04:18:26;9.50;99.90
22966;DHT22;11649;48.090;9.754;2023-05-02T04:20:52;9.40;99.90
22966;DHT22;11649;48.090;9.754;2023-05-02T04:23:19;9.40;99.90
22966;DHT22;11649;48.090;9.754;2023-05-02T04:25:50;9.40;99.90
22966;DHT22;11649;48.090;9.754;2023-05-02T04:28:18;9.40;99.90
22966;DHT22;11649;48.090;9.754;2023-05-02T04:30:46;9.40;99.90
22966;DHT22;11649;48.090;9.754;2023-05-02T04:33:12;9.50;99.90
22966;DHT22;11649;48.090;9.754;2023-05-02T04:35:40;9.50;99.90
22966;DHT22;11649;48.090;9.754;2023-05-02T04:38:07;9.60;99.90
22966;DHT22;11649;48.090;9.754;2023-05-02T04:40:34;9.60;99.90
22966;DHT22;11649;48.090;9.754;2023-05-02T04:43:01;9.70;99.90
22966;DHT22;11649;48.090;9.754;2023-05-02T04:45:28;9.70;99.90
22966;DHT22;11649;48.090;9.754;2023-05-02T04:47:55;9.70;99.90
22966;DHT22;11649;48.090;9.754;2023-05-02T04:50:22;9.70;99.90
22966;DHT22;11649;48.090;9.754;2023-05-02T04:52:49;9.80;99.90
22966;DHT22;11649;48.090;9.754;2023-05-02T04:55:15;9.80;99.90
22966;DHT22;11649;48.090;9.754;2023-05-02T04:57:42;9.80;99.90
22966;DHT22;11649;48.090;9.754;2023-05-02T05:00:09;9.90;99.90
22966;DHT22;11649;48.090;9.754;2023-05-02T05:02:36;9.90;99.90
22966;DHT22;11649;48.090;9.754;2023-05-02T05:05:05;10.00;99.90
22966;DHT22;11649;48.090;9.754;2023-05-02T05:07:32;10.00;99.90
22966;DHT22;11649;48.090;9.754;2023-05-02T05:09:58;10.00;99.90
22966;DHT22;11649;48.090;9.754;2023-05-02T05:12:26;10.00;99.90
22966;DHT22;11649;48.090;9.754;2023-05-02T05:14:52;10.10;99.90
22966;DHT22;11649;48.090;9.754;2023-05-02T05:17:19;10.10;99.90
22966;DHT22;11649;48.090;9.754;2023-05-02T05:19:46;10.10;99.90
22966;DHT22;11649;48.090;9.754;2023-05-02T05:22:12;10.10;99.90
22966;DHT22;11649;48.090;9.754;2023-05-02T05:24:39;10.10;99.90
22966;DHT22;11649;48.090;9.754;2023-05-02T05:27:06;10.20;99.90
22966;DHT22;11649;48.090;9.754;2023-05-02T05:29:33;10.20;99.90
22966;DHT22;11649;48.090;9.754;2023-05-02T05:32:00;10.10;99.90
22966;DHT22;11649;48.090;9.754;2023-05-02T05:34:27;10.20;99.90
22966;DHT22;11649;48.090;9.754;2023-05-02T05:36:53;10.30;99.90
22966;DHT22;11649;48.090;9.754;2023-05-02T05:39:20;10.30;99.90
22966;DHT22;11649;48.090;9.754;2023-05-02T05:41:47;10.30;99.90
22966;DHT22;11649;48.090;9.754;2023-05-02T05:44:14;10.30;99.90
22966;DHT22;11649;48.090;9.754;2023-05-02T05:46:40;10.30;99.90
22966;DHT22;11649;48.090;9.754;2023-05-02T05:49:07;10.30;99.90
22966;DHT22;11649;48.090;9.754;2023-05-02T05:51:34;10.40;99.90
22966;DHT22;11649;48.090;9.754;2023-05-02T05:54:01;10.50;99.90
22966;DHT22;11649;48.090;9.754;2023-05-02T05:56:28;10.50;99.90
22966;DHT22;11649;48.090;9.754;2023-05-02T05:58:55;10.60;99.90
22966;DHT22;11649;48.090;9.754;2023-05-02T06:01:21;10.50;99.90
22966;DHT22;11649;48.090;9.754;2023-05-02T06:03:48;10.50;99.90
22966;DHT22;11649;48.090;9.754;2023-05-02T06:06:15;10.50;99.90
22966;DHT22;11649;48.090;9.754;2023-05-02T06:08:42;10.50;99.90
22966;DHT22;11649;48.090;9.754;2023-05-02T06:11:09;10.60;99.90
22966;DHT22;11649;48.090;9.754;2023-05-02T06:13:37;10.70;99.90
22966;DHT22;11649;48.090;9.754;2023-05-02T06:16:04;11.10;99.90
22966;DHT22;11649;48.090;9.754;2023-05-02T06:18:31;10.70;99.90
22966;DHT22;11649;48.090;9.754;2023-05-02T06:21:05;10.80;99.90
22966;DHT22;11649;48.090;9.754;2023-05-02T06:23:32;10.90;99.90
22966;DHT22;11649;48.090;9.754;2023-05-02T06:25:59;11.00;99.90
22966;DHT22;11649;48.090;9.754;2023-05-02T06:28:27;11.00;99.90
22966;DHT22;11649;48.090;9.754;2023-05-02T06:31:01;11.00;99.90
22966;DHT22;11649;48.090;9.754;2023-05-02T06:33:30;11.20;99.90
22966;DHT22;11649;48.090;9.754;2023-05-02T06:35:57;11.30;99.90
22966;DHT22;11649;48.090;9.754;2023-05-02T06:38:27;11.30;99.90
22966;DHT22;11649;48.090;9.754;2023-05-02T06:40:54;11.40;99.90
22966;DHT22;11649;48.090;9.754;2023-05-02T06:43:20;11.30;99.90
22966;DHT22;11649;48.090;9.754;2023-05-02T06:45:47;11.30;99.90
22966;DHT22;11649;48.090;9.754;2023-05-02T06:48:14;11.40;99.90
22966;DHT22;11649;48.090;9.754;2023-05-02T06:50:41;11.40;99.90
22966;DHT22;11649;48.090;9.754;2023-05-02T06:53:08;11.50;99.90
22966;DHT22;11649;48.090;9.754;2023-05-02T06:55:35;11.70;99.90
22966;DHT22;11649;48.090;9.754;2023-05-02T06:58:02;11.80;99.90
22966;DHT22;11649;48.090;9.754;2023-05-02T07:00:28;12.00;99.90
22966;DHT22;11649;48.090;9.754;2023-05-02T07:02:55;12.00;99.90
22966;DHT22;11649;48.090;9.754;2023-05-02T07:05:22;12.00;99.90
22966;DHT22;11649;48.090;9.754;2023-05-02T07:07:49;12.10;99.90
22966;DHT22;11649;48.090;9.754;2023-05-02T07:10:16;12.10;99.90
22966;DHT22;11649;48.090;9.754;2023-05-02T07:12:42;12.40;99.90
22966;DHT22;11649;48.090;9.754;2023-05-02T07:15:09;12.90;99.90
22966;DHT22;11649;48.090;9.754;2023-05-02T07:17:36;12.90;99.90
22966;DHT22;11649;48.090;9.754;2023-05-02T07:20:03;13.20;99.90
22966;DHT22;11649;48.090;9.754;2023-05-02T07:22:30;13.30;99.90
22966;DHT22;11649;48.090;9.754;2023-05-02T07:24:59;13.30;99.90
22966;DHT22;11649;48.090;9.754;2023-05-02T07:27:26;13.30;99.90
22966;DHT22;11649;48.090;9.754;2023-05-02T07:29:53;13.20;99.90
22966;DHT22;11649;48.090;9.754;2023-05-02T07:32:20;13.00;99.90
22966;DHT22;11649;48.090;9.754;2023-05-02T07:34:48;12.90;99.90
22966;DHT22;11649;48.090;9.754;2023-05-02T07:37:14;12.90;99.90
22966;DHT22;11649;48.090;9.754;2023-05-02T07:39:41;12.90;99.90
22966;DHT22;11649;48.090;9.754;2023-05-02T07:42:08;12.90;99.90
22966;DHT22;11649;48.090;9.754;2023-05-02T07:44:35;12.90;99.90
22966;DHT22;11649;48.090;9.754;2023-05-02T07:47:02;12.80;99.90
22966;DHT22;11649;48.090;9.754;2023-05-02T07:49:29;12.80;99.90
22966;DHT22;11649;48.090;9.754;2023-05-02T07:51:56;12.60;99.90
22966;DHT22;11649;48.090;9.754;2023-05-02T07:54:24;12.60;99.90
22966;DHT22;11649;48.090;9.754;2023-05-02T07:56:53;12.50;99.90
22966;DHT22;11649;48.090;9.754;2023-05-02T07:59:23;12.60;99.90
22966;DHT22;11649;48.090;9.754;2023-05-02T08:01:49;12.70;99.90
22966;DHT22;11649;48.090;9.754;2023-05-02T08:04:16;12.70;99.90
22966;DHT22;11649;48.090;9.754;2023-05-02T08:06:44;13.00;99.90
22966;DHT22;11649;48.090;9.754;2023-05-02T08:09:11;12.50;99.90
22966;DHT22;11649;48.090;9.754;2023-05-02T08:11:37;12.50;99.90
22966;DHT22;11649;48.090;9.754;2023-05-02T08:14:04;12.40;99.90
22966;DHT22;11649;48.090;9.754;2023-05-02T08:16:31;12.50;99.90
22966;DHT22;11649;48.090;9.754;2023-05-02T08:18:57;12.40;99.90
22966;DHT22;11649;48.090;9.754;2023-05-02T08:21:24;12.80;99.90
22966;DHT22;11649;48.090;9.754;2023-05-02T08:23:51;12.80;99.90
22966;DHT22;11649;48.090;9.754;2023-05-02T08:26:18;12.70;99.90
22966;DHT22;11649;48.090;9.754;2023-05-02T08:28:47;12.90;99.90
22966;DHT22;11649;48.090;9.754;2023-05-02T08:31:14;12.90;99.90
22966;DHT22;11649;48.090;9.754;2023-05-02T08:33:40;13.00;99.90
22966;DHT22;11649;48.090;9.754;2023-05-02T08:36:11;13.10;99.90
22966;DHT22;11649;48.090;9.754;2023-05-02T08:38:38;13.30;99.90
22966;DHT22;11649;48.090;9.754;2023-05-02T08:41:15;13.50;99.90
22966;DHT22;11649;48.090;9.754;2023-05-02T08:43:46;13.60;99.90
22966;DHT22;11649;48.090;9.754;2023-05-02T08:46:14;13.50;99.90
22966;DHT22;11649;48.090;9.754;2023-05-02T08:48:44;13.50;99.90
22966;DHT22;11649;48.090;9.754;2023-05-02T08:51:12;13.40;99.90
22966;DHT22;11649;48.090;9.754;2023-05-02T08:53:40;13.50;99.90
22966;DHT22;11649;48.090;9.754;2023-05-02T08:56:10;13.60;99.90
22966;DHT22;11649;48.090;9.754;2023-05-02T08:58:39;13.70;99.90
22966;DHT22;11649;48.090;9.754;2023-05-02T09:01:12;13.90;99.90
22966;DHT22;11649;48.090;9.754;2023-05-02T09:03:41;13.80;99.90
22966;DHT22;11649;48.090;9.754;2023-05-02T09:06:17;13.60;99.90
22966;DHT22;11649;48.090;9.754;2023-05-02T09:08:46;13.60;99.90
22966;DHT22;11649;48.090;9.754;2023-05-02T09:11:16;13.40;99.90
22966;DHT22;11649;48.090;9.754;2023-05-02T09:13:46;13.40;99.90
22966;DHT22;11649;48.090;9.754;2023-05-02T09:16:20;13.40;99.90
22966;DHT22;11649;48.090;9.754;2023-05-02T09:18:57;13.20;99.90
22966;DHT22;11649;48.090;9.754;2023-05-02T09:21:26;13.50;99.90
22966;DHT22;11649;48.090;9.754;2023-05-02T09:24:00;13.50;99.90
22966;DHT22;11649;48.090;9.754;2023-05-02T09:26:29;13.80;99.90
22966;DHT22;11649;48.090;9.754;2023-05-02T09:28:59;14.00;99.90
22966;DHT22;11649;48.090;9.754;2023-05-02T09:31:33;14.20;99.90
22966;DHT22;11649;48.090;9.754;2023-05-02T09:34:22;14.30;99.90
22966;DHT22;11649;48.090;9.754;2023-05-02T09:36:49;14.70;99.90
22966;DHT22;11649;48.090;9.754;2023-05-02T09:39:25;15.20;99.90
22966;DHT22;11649;48.090;9.754;2023-05-02T09:41:52;15.60;99.90
22966;DHT22;11649;48.090;9.754;2023-05-02T09:44:25;15.60;99.90
22966;DHT22;11649;48.090;9.754;2023-05-02T09:46:57;15.80;99.90
22966;DHT22;11649;48.090;9.754;2023-05-02T09:49:42;15.90;99.90
22966;DHT22;11649;48.090;9.754;2023-05-02T09:52:17;16.10;99.90
22966;DHT22;11649;48.090;9.754;2023-05-02T09:54:44;16.00;99.90
22966;DHT22;11649;48.090;9.754;2023-05-02T09:57:16;15.90;99.90
22966;DHT22;11649;48.090;9.754;2023-05-02T09:59:56;15.80;99.90
22966;DHT22;11649;48.090;9.754;2023-05-02T10:02:24;15.80;99.90
22966;DHT22;11649;48.090;9.754;2023-05-02T10:04:53;15.60;99.90
22966;DHT22;11649;48.090;9.754;2023-05-02T10:07:22;15.60;99.90
22966;DHT22;11649;48.090;9.754;2023-05-02T10:09:53;15.70;99.90
22966;DHT22;11649;48.090;9.754;2023-05-02T10:12:23;15.60;99.90
22966;DHT22;11649;48.090;9.754;2023-05-02T10:14:58;15.50;99.90
22966;DHT22;11649;48.090;9.754;2023-05-02T10:17:52;15.50;99.90
22966;DHT22;11649;48.090;9.754;2023-05-02T10:20:29;15.20;99.90
22966;DHT22;11649;48.090;9.754;2023-05-02T10:22:58;15.10;99.90
22966;DHT22;11649;48.090;9.754;2023-05-02T10:25:26;14.90;99.90
22966;DHT22;11649;48.090;9.754;2023-05-02T10:27:55;14.80;99.90
22966;DHT22;11649;48.090;9.754;2023-05-02T10:30:25;14.70;99.90
22966;DHT22;11649;48.090;9.754;2023-05-02T10:32:52;14.50;99.90
22966;DHT22;11649;48.090;9.754;2023-05-02T10:35:22;14.30;99.90
22966;DHT22;11649;48.090;9.754;2023-05-02T10:37:50;14.20;99.90
22966;DHT22;11649;48.090;9.754;2023-05-02T10:40:18;14.20;99.90
22966;DHT22;11649;48.090;9.754;2023-05-02T10:42:48;14.30;99.90
22966;DHT22;11649;48.090;9.754;2023-05-02T10:45:32;14.20;99.90
22966;DHT22;11649;48.090;9.754;2023-05-02T10:50:48;14.20;99.90
22966;DHT22;11649;48.090;9.754;2023-05-02T10:56:15;14.30;99.90
22966;DHT22;11649;48.090;9.754;2023-05-02T10:58:44;14.30;99.90
22966;DHT22;11649;48.090;9.754;2023-05-02T11:04:01;14.30;99.90
22966;DHT22;11649;48.090;9.754;2023-05-02T11:06:31;14.30;99.90
22966;DHT22;11649;48.090;9.754;2023-05-02T11:11:49;14.40;99.90
22966;DHT22;11649;48.090;9.754;2023-05-02T11:19:28;14.70;99.90
22966;DHT22;11649;48.090;9.754;2023-05-02T11:24:45;14.60;99.90
22966;DHT22;11649;48.090;9.754;2023-05-02T11:30:02;14.90;99.90
22966;DHT22;11649;48.090;9.754;2023-05-02T11:35:18;15.10;99.90
22966;DHT22;11649;48.090;9.754;2023-05-02T11:38:08;15.20;99.90
22966;DHT22;11649;48.090;9.754;2023-05-02T11:40:35;15.30;99.90
22966;DHT22;11649;48.090;9.754;2023-05-02T11:43:15;15.50;99.90
22966;DHT22;11649;48.090;9.754;2023-05-02T11:45:42;15.50;99.90
22966;DHT22;11649;48.090;9.754;2023-05-02T11:48:15;15.70;99.90
22966;DHT22;11649;48.090;9.754;2023-05-02T11:50:45;15.60;99.90
22966;DHT22;11649;48.090;9.754;2023-05-02T11:53:19;15.60;99.90
22966;DHT22;11649;48.090;9.754;2023-05-02T11:56:06;15.90;99.90
22966;DHT22;11649;48.090;9.754;2023-05-02T11:58:34;16.00;99.90
22966;DHT22;11649;48.090;9.754;2023-05-02T12:01:14;16.20;99.90
22966;DHT22;11649;48.090;9.754;2023-05-02T12:03:41;16.00;99.90
22966;DHT22;11649;48.090;9.754;2023-05-02T12:06:13;16.40;99.90
22966;DHT22;11649;48.090;9.754;2023-05-02T12:08:42;17.30;99.90
22966;DHT22;11649;48.090;9.754;2023-05-02T12:11:12;17.70;99.90
22966;DHT22;11649;48.090;9.754;2023-05-02T12:13:48;18.20;99.90
22966;DHT22;11649;48.090;9.754;2023-05-02T12:16:16;18.70;99.90
22966;DHT22;11649;48.090;9.754;2023-05-02T12:18:44;18.50;99.90
22966;DHT22;11649;48.090;9.754;2023-05-02T12:21:12;18.40;96.20
22966;DHT22;11649;48.090;9.754;2023-05-02T12:23:39;18.70;98.20
22966;DHT22;11649;48.090;9.754;2023-05-02T12:26:21;18.80;91.50
22966;DHT22;11649;48.090;9.754;2023-05-02T12:28:51;18.60;91.10
22966;DHT22;11649;48.090;9.754;2023-05-02T12:31:20;18.00;90.00
22966;DHT22;11649;48.090;9.754;2023-05-02T12:33:48;18.30;92.10
22966;DHT22;11649;48.090;9.754;2023-05-02T12:36:19;18.70;95.10
22966;DHT22;11649;48.090;9.754;2023-05-02T12:38:48;19.10;92.00
22966;DHT22;11649;48.090;9.754;2023-05-02T12:41:18;18.60;86.40
22966;DHT22;11649;48.090;9.754;2023-05-02T12:43:46;18.30;91.70
22966;DHT22;11649;48.090;9.754;2023-05-02T12:46:13;18.30;90.30
22966;DHT22;11649;48.090;9.754;2023-05-02T12:48:40;17.30;98.50
22966;DHT22;11649;48.090;9.754;2023-05-02T12:51:19;16.80;97.80
22966;DHT22;11649;48.090;9.754;2023-05-02T12:53:47;16.70;98.60
22966;DHT22;11649;48.090;9.754;2023-05-02T12:56:13;16.70;99.90
22966;DHT22;11649;48.090;9.754;2023-05-02T12:58:47;16.00;99.90
22966;DHT22;11649;48.090;9.754;2023-05-02T13:01:14;15.70;99.90
22966;DHT22;11649;48.090;9.754;2023-05-02T13:03:42;15.40;99.90
22966;DHT22;11649;48.090;9.754;2023-05-02T13:06:09;15.50;99.90
22966;DHT22;11649;48.090;9.754;2023-05-02T13:08:37;15.50;99.90
22966;DHT22;11649;48.090;9.754;2023-05-02T13:11:03;16.20;99.90
22966;DHT22;11649;48.090;9.754;2023-05-02T13:13:30;17.20;99.90
22966;DHT22;11649;48.090;9.754;2023-05-02T13:15:58;18.40;95.90
22966;DHT22;11649;48.090;9.754;2023-05-02T13:18:25;19.40;84.80
22966;DHT22;11649;48.090;9.754;2023-05-02T13:20:53;20.20;86.60
22966;DHT22;11649;48.090;9.754;2023-05-02T13:23:20;20.20;79.30
22966;DHT22;11649;48.090;9.754;2023-05-02T13:25:47;20.80;81.40
22966;DHT22;11649;48.090;9.754;2023-05-02T13:28:14;21.20;73.40
22966;DHT22;11649;48.090;9.754;2023-05-02T13:30:40;22.20;76.90
22966;DHT22;11649;48.090;9.754;2023-05-02T13:33:07;22.90;66.40
22966;DHT22;11649;48.090;9.754;2023-05-02T13:35:35;23.40;64.60
22966;DHT22;11649;48.090;9.754;2023-05-02T13:38:02;24.10;61.20
22966;DHT22;11649;48.090;9.754;2023-05-02T13:40:29;24.00;60.80
22966;DHT22;11649;48.090;9.754;2023-05-02T13:42:56;25.40;61.40
22966;DHT22;11649;48.090;9.754;2023-05-02T13:45:23;26.20;52.60
22966;DHT22;11649;48.090;9.754;2023-05-02T13:47:49;26.10;52.60
22966;DHT22;11649;48.090;9.754;2023-05-02T13:50:16;25.60;54.10
22966;DHT22;11649;48.090;9.754;2023-05-02T13:52:43;24.20;56.00
22966;DHT22;11649;48.090;9.754;2023-05-02T13:55:13;21.80;61.00
22966;DHT22;11649;48.090;9.754;2023-05-02T13:57:39;20.20;67.00
22966;DHT22;11649;48.090;9.754;2023-05-02T14:00:07;18.70;83.50
22966;DHT22;11649;48.090;9.754;2023-05-02T14:02:35;17.60;92.80
22966;DHT22;11649;48.090;9.754;2023-05-02T14:05:02;16.80;98.70
22966;DHT22;11649;48.090;9.754;2023-05-02T14:07:29;16.20;99.90
22966;DHT22;11649;48.090;9.754;2023-05-02T14:09:56;15.80;99.90
22966;DHT22;11649;48.090;9.754;2023-05-02T14:12:23;15.00;99.90
22966;DHT22;11649;48.090;9.754;2023-05-02T14:14:49;14.00;99.90
22966;DHT22;11649;48.090;9.754;2023-05-02T14:17:16;13.40;99.90
22966;DHT22;11649;48.090;9.754;2023-05-02T14:19:43;13.10;99.90
22966;DHT22;11649;48.090;9.754;2023-05-02T14:22:10;13.30;99.90
22966;DHT22;11649;48.090;9.754;2023-05-02T14:24:37;13.10;99.90
22966;DHT22;11649;48.090;9.754;2023-05-02T14:27:03;13.70;99.90
22966;DHT22;11649;48.090;9.754;2023-05-02T14:29:32;14.40;99.90
22966;DHT22;11649;48.090;9.754;2023-05-02T14:31:59;15.30;99.90
22966;DHT22;11649;48.090;9.754;2023-05-02T14:34:26;16.60;99.90
22966;DHT22;11649;48.090;9.754;2023-05-02T14:36:53;16.60;99.90
22966;DHT22;11649;48.090;9.754;2023-05-02T14:39:19;17.00;99.90
22966;DHT22;11649;48.090;9.754;2023-05-02T14:41:46;17.10;99.90
22966;DHT22;11649;48.090;9.754;2023-05-02T14:44:13;17.20;99.90
22966;DHT22;11649;48.090;9.754;2023-05-02T14:46:40;17.20;99.90
22966;DHT22;11649;48.090;9.754;2023-05-02T14:49:07;17.30;99.90
22966;DHT22;11649;48.090;9.754;2023-05-02T14:51:39;17.40;99.90
22966;DHT22;11649;48.090;9.754;2023-05-02T14:54:06;17.80;99.90
22966;DHT22;11649;48.090;9.754;2023-05-02T14:56:32;17.70;99.20
22966;DHT22;11649;48.090;9.754;2023-05-02T14:58:59;18.00;99.90
22966;DHT22;11649;48.090;9.754;2023-05-02T15:01:26;19.60;91.40
22966;DHT22;11649;48.090;9.754;2023-05-02T15:03:53;21.80;89.20
22966;DHT22;11649;48.090;9.754;2023-05-02T15:06:31;23.90;71.60
22966;DHT22;11649;48.090;9.754;2023-05-02T15:08:59;25.10;65.50
22966;DHT22;11649;48.090;9.754;2023-05-02T15:11:27;25.70;56.80
22966;DHT22;11649;48.090;9.754;2023-05-02T15:13:53;26.50;51.50
22966;DHT22;11649;48.090;9.754;2023-05-02T15:16:24;26.30;49.50
22966;DHT22;11649;48.090;9.754;2023-05-02T15:18:53;26.20;54.30
22966;DHT22;11649;48.090;9.754;2023-05-02T15:21:20;26.50;50.30
22966;DHT22;11649;48.090;9.754;2023-05-02T15:23:46;26.70;48.20
22966;DHT22;11649;48.090;9.754;2023-05-02T15:26:13;26.20;48.10
22966;DHT22;11649;48.090;9.754;2023-05-02T15:28:40;24.70;52.60
22966;DHT22;11649;48.090;9.754;2023-05-02T15:31:07;22.60;56.70
22966;DHT22;11649;48.090;9.754;2023-05-02T15:33:33;21.20;61.90
22966;DHT22;11649;48.090;9.754;2023-05-02T15:36:00;20.10;65.40
22966;DHT22;11649;48.090;9.754;2023-05-02T15:38:27;19.20;70.20
22966;DHT22;11649;48.090;9.754;2023-05-02T15:40:56;18.90;77.80
22966;DHT22;11649;48.090;9.754;2023-05-02T15:43:23;17.60;87.10
22966;DHT22;11649;48.090;9.754;2023-05-02T15:45:57;17.70;89.80
22966;DHT22;11649;48.090;9.754;2023-05-02T15:48:29;18.80;86.40
22966;DHT22;11649;48.090;9.754;2023-05-02T15:50:56;19.60;75.40
22966;DHT22;11649;48.090;9.754;2023-05-02T15:53:23;20.20;72.60
22966;DHT22;11649;48.090;9.754;2023-05-02T15:55:50;20.20;74.60
22966;DHT22;11649;48.090;9.754;2023-05-02T15:58:18;19.90;76.90
22966;DHT22;11649;48.090;9.754;2023-05-02T16:00:45;19.30;83.90
22966;DHT22;11649;48.090;9.754;2023-05-02T16:03:13;18.40;89.10
22966;DHT22;11649;48.090;9.754;2023-05-02T16:05:40;17.60;92.50
22966;DHT22;11649;48.090;9.754;2023-05-02T16:08:07;17.20;93.90
22966;DHT22;11649;48.090;9.754;2023-05-02T16:10:34;17.20;94.90
22966;DHT22;11649;48.090;9.754;2023-05-02T16:13:02;17.60;94.70
22966;DHT22;11649;48.090;9.754;2023-05-02T16:15:29;17.70;93.30
22966;DHT22;11649;48.090;9.754;2023-05-02T16:17:56;17.70;91.90
22966;DHT22;11649;48.090;9.754;2023-05-02T16:20:23;17.40;91.90
22966;DHT22;11649;48.090;9.754;2023-05-02T16:22:49;17.20;93.30
22966;DHT22;11649;48.090;9.754;2023-05-02T16:25:16;16.70;93.90
22966;DHT22;11649;48.090;9.754;2023-05-02T16:27:44;16.40;93.60
22966;DHT22;11649;48.090;9.754;2023-05-02T16:30:11;15.90;95.70
22966;DHT22;11649;48.090;9.754;2023-05-02T16:32:38;15.80;97.40
22966;DHT22;11649;48.090;9.754;2023-05-02T16:35:06;15.70;95.30
22966;DHT22;11649;48.090;9.754;2023-05-02T16:37:36;15.60;93.30